CPX796 Details

Departure: Guarulhos International Airport (SBGR)
Arrival: Miami International Airport (KMIA)
Route: UKBE1C UKBEV ASTOB UM417 OBGAT UZ21 VUMPI UL795 URSUS FLIPR6


Current Weather Information
SBGR 260900Z 00000KT CAVOK 16/16 Q1018
KMIA 260853Z 27004KT 10SM FEW022 21/18 A3000 RMK AO2 SLP160 T02110178 56012